Montalvania, Brazil
Current Conditions -  °F | °C
As of 2:00 PM on Thursday 30 Oct 2014 (Local Time) from SBMK Reporting Station
Rain Showers Rain Showers  
Wind Chill: 73°   Ceiling: 10000
Heat Index: 73°   Visibility: 6mi
Dew Point: 64°   Wind: 2mph
Humidity: 73%   Direction: 250°WSW
Pressure: 30"   Gusts: NA
Location:  14.43°S, 44.38°W
Report Text: SBMK 301600Z 25002KT 9999 VCSH FEW012 SCT040 BKN100 23/18 Q1016
Loading
Personal Weather Stations






























Interactive Weather Map
Tropical Storm Tracking
New forecast layout! Learn more

10-Day Weather Forecast

Advertisements
Track Severe Weather on mobile